Time;durP1;ratioP1;P1;durP2;ratioP2;P2;SDS_P1;SDS_P2;PMS_P1;PMS_P2;Temp;Humidity;BMP_temperature;BMP_pressure;BME280_temperature;BME280_humidity;BME280_pressure;Samples;Min_cycle;Max_cycle;Signal;HPM_P1;HPM_P2
2021/06/17 00:00:37;;;;;;;5.01;3.29;;;;;;;;;;358316;149;857404;-57
2021/06/17 00:01:40;;;;;;;6.21;3.50;;;;;;;;;;355967;150;864929;-57
2021/06/17 00:02:41;;;;;;;4.17;3.31;;;;;;;;;;357743;149;866566;-57
2021/06/17 00:03:43;;;;;;;4.21;3.47;;;;;;;;;;358837;150;859071;-57
2021/06/17 00:04:44;;;;;;;6.59;3.51;;;;;;;;;;357674;150;865698;-57
2021/06/17 00:05:46;;;;;;;3.70;3.14;;;;;;;;;;356136;149;859555;-57
2021/06/17 00:06:48;;;;;;;6.24;3.71;;;;;;;;;;357148;150;859357;-57
2021/06/17 00:07:49;;;;;;;6.25;3.49;;;;;;;;;;352441;149;864906;-58
2021/06/17 00:08:51;;;;;;;5.06;3.52;;;;;;;;;;352531;149;857206;-57
2021/06/17 00:09:52;;;;;;;6.26;3.59;;;;;;;;;;351940;152;857173;-58
2021/06/17 00:10:55;;;;;;;8.99;3.35;;;;;;;;;;355730;149;857472;-60
2021/06/17 00:12:00;;;;;;;6.80;3.73;;;;;;;;;;356790;150;857304;-61
2021/06/17 00:13:01;;;;;;;6.42;3.69;;;;;;;;;;357134;149;859097;-60
2021/06/17 00:14:03;;;;;;;7.21;3.61;;;;;;;;;;358470;149;857282;-60
2021/06/17 00:15:06;;;;;;;5.81;3.61;;;;;;;;;;356877;150;864835;-60
2021/06/17 00:16:08;;;;;;;6.39;3.89;;;;;;;;;;357353;149;857798;-60
2021/06/17 00:17:10;;;;;;;12.02;4.22;;;;;;;;;;358942;150;857745;-58
2021/06/17 00:18:11;;;;;;;6.36;3.56;;;;;;;;;;354650;149;857378;-58
2021/06/17 00:19:13;;;;;;;7.49;3.91;;;;;;;;;;358486;149;858202;-58
2021/06/17 00:20:16;;;;;;;6.62;4.01;;;;;;;;;;361161;149;857467;-58
2021/06/17 00:21:18;;;;;;;7.90;4.11;;;;;;;;;;356448;149;857807;-58
2021/06/17 00:22:20;;;;;;;7.94;4.06;;;;;;;;;;355356;150;864880;-58
2021/06/17 00:23:21;;;;;;;5.64;3.75;;;;;;;;;;354522;150;857196;-59
2021/06/17 00:24:23;;;;;;;7.89;3.69;;;;;;;;;;355327;150;857137;-58
2021/06/17 00:25:25;;;;;;;10.42;3.84;;;;;;;;;;357764;150;857225;-58
2021/06/17 00:26:27;;;;;;;5.18;3.71;;;;;;;;;;345076;153;864958;-58
2021/06/17 00:27:29;;;;;;;5.19;3.79;;;;;;;;;;354276;150;864786;-58
2021/06/17 00:28:30;;;;;;;6.31;4.21;;;;;;;;;;355357;151;858946;-58
2021/06/17 00:29:32;;;;;;;8.14;4.28;;;;;;;;;;355105;149;858350;-59
2021/06/17 00:30:34;;;;;;;6.23;3.78;;;;;;;;;;357804;150;857537;-58
2021/06/17 00:31:36;;;;;;;5.24;3.60;;;;;;;;;;359228;150;858750;-58
2021/06/17 00:32:38;;;;;;;6.66;3.83;;;;;;;;;;357062;149;859324;-58
2021/06/17 00:33:39;;;;;;;7.41;4.27;;;;;;;;;;355017;150;865516;-58
2021/06/17 00:34:41;;;;;;;9.05;3.89;;;;;;;;;;357818;149;865410;-58
2021/06/17 00:35:43;;;;;;;6.24;3.73;;;;;;;;;;356924;149;857607;-58
2021/06/17 00:36:45;;;;;;;5.30;4.09;;;;;;;;;;357163;150;857138;-58
2021/06/17 00:37:46;;;;;;;8.90;4.09;;;;;;;;;;357429;150;857262;-58
2021/06/17 00:38:48;;;;;;;8.61;4.27;;;;;;;;;;359155;150;864821;-58
2021/06/17 00:39:49;;;;;;;5.41;3.88;;;;;;;;;;356072;150;857343;-58
2021/06/17 00:40:53;;;;;;;10.07;4.51;;;;;;;;;;356579;149;857255;-59
2021/06/17 00:41:55;;;;;;;10.69;5.00;;;;;;;;;;354927;150;857132;-58
2021/06/17 00:42:57;;;;;;;8.71;4.28;;;;;;;;;;358898;149;866707;-58
2021/06/17 00:43:58;;;;;;;8.52;4.39;;;;;;;;;;358815;149;859081;-58
2021/06/17 00:45:00;;;;;;;6.90;4.14;;;;;;;;;;357676;150;859544;-58
2021/06/17 00:46:02;;;;;;;6.44;4.30;;;;;;;;;;357622;149;859674;-59
2021/06/17 00:47:03;;;;;;;6.86;4.40;;;;;;;;;;358357;150;866048;-58
2021/06/17 00:48:05;;;;;;;8.94;4.61;;;;;;;;;;356886;149;865845;-58
2021/06/17 00:49:07;;;;;;;9.47;4.15;;;;;;;;;;355659;149;866170;-58
2021/06/17 00:50:09;;;;;;;8.30;4.45;;;;;;;;;;358921;150;859556;-58
2021/06/17 00:51:11;;;;;;;6.21;4.53;;;;;;;;;;357943;149;865151;-59
2021/06/17 00:52:13;;;;;;;9.86;4.69;;;;;;;;;;358642;149;857905;-58
2021/06/17 00:53:15;;;;;;;8.62;4.82;;;;;;;;;;357619;150;865039;-58
2021/06/17 00:54:31;;;;;;;7.11;3.91;;;;;;;;;;353966;149;857359;-58
2021/06/17 00:55:22;;;;;;;6.67;4.54;;;;;;;;;;353625;150;860851;-58
2021/06/17 00:56:24;;;;;;;7.19;4.53;;;;;;;;;;356505;150;858912;-58
2021/06/17 00:57:26;;;;;;;10.62;4.66;;;;;;;;;;356609;149;857269;-58
2021/06/17 00:58:27;;;;;;;6.89;3.99;;;;;;;;;;357667;150;857268;-58
2021/06/17 00:59:29;;;;;;;9.11;4.48;;;;;;;;;;357041;150;857964;-58
2021/06/17 01:00:32;;;;;;;6.49;4.56;;;;;;;;;;352922;150;859133;-59
2021/06/17 01:01:33;;;;;;;6.49;4.64;;;;;;;;;;354274;149;857709;-58
2021/06/17 01:02:35;;;;;;;9.63;4.46;;;;;;;;;;355471;149;857363;-58
2021/06/17 01:03:36;;;;;;;6.83;4.34;;;;;;;;;;359064;150;857316;-58
2021/06/17 01:04:38;;;;;;;4.59;3.91;;;;;;;;;;357377;149;857531;-58
2021/06/17 01:05:40;;;;;;;7.14;4.56;;;;;;;;;;358152;149;857427;-58
2021/06/17 01:06:42;;;;;;;6.71;4.26;;;;;;;;;;359235;150;857379;-58
2021/06/17 01:07:54;;;;;;;10.18;4.34;;;;;;;;;;358061;149;857157;-58
2021/06/17 01:08:58;;;;;;;4.82;4.14;;;;;;;;;;359149;149;857231;-58
2021/06/17 01:10:04;;;;;;;4.31;3.66;;;;;;;;;;357179;150;857282;-58
2021/06/17 01:11:19;;;;;;;8.58;4.24;;;;;;;;;;358892;150;858874;-58
2021/06/17 01:12:22;;;;;;;4.53;4.07;;;;;;;;;;353243;149;857225;-59
2021/06/17 01:13:29;;;;;;;5.66;3.98;;;;;;;;;;356779;149;857757;-58
2021/06/17 01:14:32;;;;;;;7.89;4.03;;;;;;;;;;359105;149;857279;-58
2021/06/17 01:15:35;;;;;;;10.60;4.11;;;;;;;;;;358279;149;857120;-58
2021/06/17 01:16:42;;;;;;;7.36;4.45;;;;;;;;;;358673;149;857453;-58
2021/06/17 01:17:46;;;;;;;5.96;4.10;;;;;;;;;;359510;149;864857;-58
2021/06/17 01:18:54;;;;;;;4.96;3.88;;;;;;;;;;357476;149;857982;-58
2021/06/17 01:20:04;;;;;;;8.99;4.09;;;;;;;;;;357600;150;858937;-58
2021/06/17 01:21:09;;;;;;;6.22;3.41;;;;;;;;;;358112;149;858793;-58
2021/06/17 01:22:29;;;;;;;11.68;3.92;;;;;;;;;;354622;150;857295;-58
2021/06/17 01:23:42;;;;;;;8.95;3.77;;;;;;;;;;354567;149;858132;-59
2021/06/17 01:24:51;;;;;;;4.19;3.55;;;;;;;;;;358015;149;857317;-59
2021/06/17 01:26:04;;;;;;;7.48;3.74;;;;;;;;;;357845;150;857241;-58
2021/06/17 01:27:17;;;;;;;10.28;4.22;;;;;;;;;;357871;149;857249;-58
2021/06/17 01:28:18;;;;;;;7.94;3.87;;;;;;;;;;358932;150;858946;-58
2021/06/17 01:29:22;;;;;;;6.05;3.49;;;;;;;;;;356203;149;858060;-59
2021/06/17 01:30:24;;;;;;;8.92;3.64;;;;;;;;;;355054;150;857145;-58
2021/06/17 01:31:26;;;;;;;8.56;3.91;;;;;;;;;;354236;150;857413;-59
2021/06/17 01:32:28;;;;;;;6.34;3.52;;;;;;;;;;355559;149;864799;-58
2021/06/17 01:33:31;;;;;;;8.54;3.41;;;;;;;;;;354201;150;857721;-58
2021/06/17 01:34:32;;;;;;;7.84;3.76;;;;;;;;;;357965;149;857324;-58
2021/06/17 01:35:34;;;;;;;5.19;3.04;;;;;;;;;;356949;150;864916;-58
2021/06/17 01:36:38;;;;;;;4.48;2.89;;;;;;;;;;359140;150;859163;-58
2021/06/17 01:37:40;;;;;;;9.15;3.59;;;;;;;;;;356495;149;864973;-58
2021/06/17 01:38:43;;;;;;;4.71;3.26;;;;;;;;;;358904;150;857344;-58
2021/06/17 01:39:44;;;;;;;5.10;3.41;;;;;;;;;;352144;150;858199;-58
2021/06/17 01:40:47;;;;;;;6.30;3.37;;;;;;;;;;357472;150;864803;-58
2021/06/17 01:41:49;;;;;;;7.47;3.26;;;;;;;;;;357781;150;864765;-58
2021/06/17 01:42:50;;;;;;;5.07;3.17;;;;;;;;;;355762;149;858195;-58
2021/06/17 01:43:52;;;;;;;4.54;2.96;;;;;;;;;;356834;149;865301;-58
2021/06/17 01:44:54;;;;;;;6.79;3.69;;;;;;;;;;356239;149;857691;-58
2021/06/17 01:45:57;;;;;;;5.49;3.79;;;;;;;;;;354683;149;857265;-58
2021/06/17 01:46:58;;;;;;;4.34;3.34;;;;;;;;;;358050;150;865846;-58
2021/06/17 01:48:00;;;;;;;5.19;3.31;;;;;;;;;;357692;149;857397;-58
2021/06/17 01:49:02;;;;;;;5.19;3.42;;;;;;;;;;358692;149;866571;-57
2021/06/17 01:50:04;;;;;;;6.50;3.37;;;;;;;;;;355065;150;857301;-57
2021/06/17 01:51:06;;;;;;;4.72;3.47;;;;;;;;;;353856;149;857106;-57
2021/06/17 01:52:07;;;;;;;6.96;4.09;;;;;;;;;;357652;150;857946;-57
2021/06/17 01:53:09;;;;;;;7.61;3.33;;;;;;;;;;359040;150;857310;-57
2021/06/17 01:54:20;;;;;;;4.64;3.51;;;;;;;;;;358473;149;866503;-57
2021/06/17 01:55:14;;;;;;;8.08;3.61;;;;;;;;;;358426;149;857222;-58
2021/06/17 01:56:18;;;;;;;3.90;3.21;;;;;;;;;;356957;149;858737;-59
2021/06/17 01:57:20;;;;;;;8.65;3.64;;;;;;;;;;360014;148;858928;-58
2021/06/17 01:58:21;;;;;;;6.46;3.84;;;;;;;;;;359826;148;865484;-58
2021/06/17 01:59:23;;;;;;;7.20;3.73;;;;;;;;;;355589;149;857223;-58
2021/06/17 02:00:25;;;;;;;4.42;2.89;;;;;;;;;;357031;149;857852;-58
2021/06/17 02:01:31;;;;;;;6.00;3.36;;;;;;;;;;343987;153;857233;-58
2021/06/17 02:02:33;;;;;;;10.03;3.56;;;;;;;;;;348425;152;857254;-58
2021/06/17 02:03:34;;;;;;;5.40;3.51;;;;;;;;;;349647;152;857351;-58
2021/06/17 02:04:36;;;;;;;6.68;3.17;;;;;;;;;;343586;155;861537;-58
2021/06/17 02:05:38;;;;;;;5.65;3.46;;;;;;;;;;352031;152;865130;-58
2021/06/17 02:06:40;;;;;;;4.97;3.39;;;;;;;;;;358986;149;865131;-58
2021/06/17 02:07:42;;;;;;;5.71;3.44;;;;;;;;;;357335;148;857448;-58
2021/06/17 02:08:44;;;;;;;5.12;2.96;;;;;;;;;;359855;148;857926;-58
2021/06/17 02:09:46;;;;;;;4.31;3.17;;;;;;;;;;358936;149;858866;-58
2021/06/17 02:10:48;;;;;;;6.30;2.61;;;;;;;;;;351525;151;858291;-59
2021/06/17 02:11:50;;;;;;;3.95;3.06;;;;;;;;;;350058;152;858219;-58
2021/06/17 02:12:51;;;;;;;6.15;3.09;;;;;;;;;;350249;150;858697;-59
2021/06/17 02:13:53;;;;;;;6.28;3.04;;;;;;;;;;356718;149;857248;-58
2021/06/17 02:14:55;;;;;;;4.39;3.21;;;;;;;;;;354624;149;857389;-58
2021/06/17 02:15:57;;;;;;;4.97;2.91;;;;;;;;;;358413;149;864812;-58
2021/06/17 02:16:59;;;;;;;4.70;3.02;;;;;;;;;;353840;150;857729;-58
2021/06/17 02:18:01;;;;;;;6.89;2.94;;;;;;;;;;350221;151;857871;-58
2021/06/17 02:19:03;;;;;;;4.91;2.74;;;;;;;;;;353562;150;857532;-58
2021/06/17 02:20:07;;;;;;;5.81;3.07;;;;;;;;;;353182;150;864833;-58
2021/06/17 02:21:08;;;;;;;5.34;3.06;;;;;;;;;;355553;149;857267;-58
2021/06/17 02:22:10;;;;;;;7.61;3.20;;;;;;;;;;346639;155;864971;-58
2021/06/17 02:23:12;;;;;;;4.10;2.74;;;;;;;;;;354824;150;860997;-58
2021/06/17 02:24:14;;;;;;;5.33;2.83;;;;;;;;;;355964;149;865602;-58
2021/06/17 02:25:16;;;;;;;5.98;3.22;;;;;;;;;;352117;150;857356;-58
2021/06/17 02:26:18;;;;;;;5.11;3.13;;;;;;;;;;354598;150;865502;-59
2021/06/17 02:27:21;;;;;;;6.44;3.38;;;;;;;;;;355451;149;866233;-59
2021/06/17 02:28:23;;;;;;;6.85;3.05;;;;;;;;;;353447;150;857600;-59
2021/06/17 02:29:25;;;;;;;5.29;2.79;;;;;;;;;;353829;150;857164;-59
2021/06/17 02:30:30;;;;;;;4.44;2.61;;;;;;;;;;352396;150;857236;-58
2021/06/17 02:31:32;;;;;;;3.46;2.47;;;;;;;;;;353261;150;857430;-58
2021/06/17 02:32:33;;;;;;;5.07;2.65;;;;;;;;;;355376;150;857274;-59
2021/06/17 02:33:35;;;;;;;6.01;3.10;;;;;;;;;;355172;150;858931;-59
2021/06/17 02:34:37;;;;;;;5.76;2.77;;;;;;;;;;353707;150;859753;-59
2021/06/17 02:35:40;;;;;;;5.60;2.80;;;;;;;;;;355809;149;859246;-59
2021/06/17 02:36:44;;;;;;;5.91;2.99;;;;;;;;;;352396;150;859086;-58
2021/06/17 02:37:46;;;;;;;5.73;2.62;;;;;;;;;;355722;150;858786;-57
2021/06/17 02:38:48;;;;;;;5.87;2.95;;;;;;;;;;357018;150;857177;-59
2021/06/17 02:39:50;;;;;;;4.66;2.72;;;;;;;;;;355931;150;857240;-57
2021/06/17 02:40:52;;;;;;;6.72;2.67;;;;;;;;;;354547;149;857246;-58
2021/06/17 02:41:54;;;;;;;6.86;2.89;;;;;;;;;;345950;153;857241;-60
2021/06/17 02:42:56;;;;;;;8.73;2.79;;;;;;;;;;350923;149;857288;-59
2021/06/17 02:43:58;;;;;;;5.83;2.89;;;;;;;;;;355837;149;857751;-59
2021/06/17 02:44:59;;;;;;;3.71;2.54;;;;;;;;;;357286;149;864899;-57
2021/06/17 02:46:02;;;;;;;4.10;2.86;;;;;;;;;;353882;149;864891;-59
2021/06/17 02:47:04;;;;;;;3.75;2.85;;;;;;;;;;355366;149;857259;-59
2021/06/17 02:48:05;;;;;;;3.57;2.53;;;;;;;;;;355681;149;857228;-59
2021/06/17 02:49:07;;;;;;;5.34;2.32;;;;;;;;;;355960;149;858213;-59
2021/06/17 02:50:11;;;;;;;4.63;2.78;;;;;;;;;;359201;149;857271;-58
2021/06/17 02:51:12;;;;;;;8.80;3.39;;;;;;;;;;360015;149;857264;-59
2021/06/17 02:52:14;;;;;;;5.46;2.84;;;;;;;;;;356384;149;858811;-59
2021/06/17 02:53:16;;;;;;;4.85;2.50;;;;;;;;;;361936;148;857304;-59
2021/06/17 02:54:20;;;;;;;5.03;3.15;;;;;;;;;;356229;148;857450;-60
2021/06/17 02:55:21;;;;;;;10.20;2.86;;;;;;;;;;356319;147;857180;-59
2021/06/17 02:56:25;;;;;;;5.05;2.61;;;;;;;;;;353741;151;859324;-59
2021/06/17 02:57:31;;;;;;;4.92;3.23;;;;;;;;;;356802;150;857323;-61
2021/06/17 02:58:47;;;;;;;6.93;3.01;;;;;;;;;;355418;149;857729;-60
2021/06/17 02:59:58;;;;;;;5.88;2.91;;;;;;;;;;353503;150;857132;-60
2021/06/17 03:01:05;;;;;;;5.07;2.71;;;;;;;;;;357075;149;859391;-59
2021/06/17 03:02:08;;;;;;;4.31;2.53;;;;;;;;;;344018;150;857536;-60
2021/06/17 03:03:12;;;;;;;3.96;2.66;;;;;;;;;;358355;150;859162;-64
2021/06/17 03:04:18;;;;;;;5.24;3.04;;;;;;;;;;358306;149;857368;-60
2021/06/17 03:05:21;;;;;;;4.59;2.89;;;;;;;;;;354912;150;857311;-62
2021/06/17 03:06:26;;;;;;;4.12;2.87;;;;;;;;;;354025;149;858741;-61
2021/06/17 03:07:29;;;;;;;5.07;2.99;;;;;;;;;;358923;149;858267;-61
2021/06/17 03:08:38;;;;;;;7.03;3.12;;;;;;;;;;355375;150;858198;-61
2021/06/17 03:09:41;;;;;;;4.23;2.73;;;;;;;;;;356928;149;859078;-60
2021/06/17 03:10:44;;;;;;;4.98;3.11;;;;;;;;;;358373;150;856597;-59
2021/06/17 03:11:48;;;;;;;5.11;3.06;;;;;;;;;;354256;150;865133;-60
2021/06/17 03:12:49;;;;;;;5.84;3.36;;;;;;;;;;355809;149;858900;-61
2021/06/17 03:13:53;;;;;;;5.52;2.84;;;;;;;;;;356229;150;859994;-59
2021/06/17 03:14:55;;;;;;;5.80;2.91;;;;;;;;;;356586;150;857296;-59
2021/06/17 03:15:57;;;;;;;5.20;3.04;;;;;;;;;;357256;150;857519;-60
2021/06/17 03:16:59;;;;;;;4.71;3.29;;;;;;;;;;355780;150;866594;-64
2021/06/17 03:18:01;;;;;;;5.03;3.04;;;;;;;;;;356499;148;865374;-60
2021/06/17 03:19:03;;;;;;;4.85;2.83;;;;;;;;;;353987;151;857233;-64
2021/06/17 03:20:06;;;;;;;6.69;3.25;;;;;;;;;;356765;150;864873;-60
2021/06/17 03:21:08;;;;;;;4.63;2.88;;;;;;;;;;356925;150;857269;-64
2021/06/17 03:22:11;;;;;;;6.68;3.08;;;;;;;;;;355928;150;858868;-63
2021/06/17 03:23:14;;;;;;;4.29;2.72;;;;;;;;;;355866;149;864732;-61
2021/06/17 03:24:16;;;;;;;5.07;2.92;;;;;;;;;;358392;149;857396;-62
2021/06/17 03:25:18;;;;;;;6.56;3.13;;;;;;;;;;358221;149;859011;-65
2021/06/17 03:26:21;;;;;;;4.66;2.87;;;;;;;;;;358647;149;865840;-62
2021/06/17 03:27:22;;;;;;;4.83;2.84;;;;;;;;;;358663;150;858949;-63
2021/06/17 03:28:24;;;;;;;4.36;2.46;;;;;;;;;;356391;150;859242;-61
2021/06/17 03:29:28;;;;;;;5.91;3.13;;;;;;;;;;356357;150;859426;-62
2021/06/17 03:30:31;;;;;;;4.86;2.80;;;;;;;;;;356613;150;859120;-63
2021/06/17 03:31:33;;;;;;;4.56;2.73;;;;;;;;;;356498;150;857359;-63
2021/06/17 03:32:38;;;;;;;3.89;2.78;;;;;;;;;;356719;149;859163;-61
2021/06/17 03:33:39;;;;;;;4.53;2.93;;;;;;;;;;357071;150;857360;-62
2021/06/17 03:34:41;;;;;;;4.34;2.91;;;;;;;;;;355905;149;859156;-62
2021/06/17 03:35:43;;;;;;;4.77;2.84;;;;;;;;;;355504;150;864840;-62
2021/06/17 03:36:46;;;;;;;4.47;2.62;;;;;;;;;;345975;153;857220;-60
2021/06/17 03:37:49;;;;;;;5.51;2.61;;;;;;;;;;350081;150;859336;-61
2021/06/17 03:38:51;;;;;;;4.53;2.86;;;;;;;;;;358867;150;857910;-60
2021/06/17 03:39:53;;;;;;;5.35;3.18;;;;;;;;;;356360;150;864709;-59
2021/06/17 03:40:55;;;;;;;5.13;3.10;;;;;;;;;;356622;149;857248;-62
2021/06/17 03:41:56;;;;;;;7.16;2.91;;;;;;;;;;357414;150;857308;-62
2021/06/17 03:43:00;;;;;;;6.44;3.72;;;;;;;;;;353893;150;857389;-60
2021/06/17 03:44:02;;;;;;;4.81;2.73;;;;;;;;;;357855;149;857352;-63
2021/06/17 03:45:04;;;;;;;6.66;3.30;;;;;;;;;;356525;149;864844;-60
2021/06/17 03:46:07;;;;;;;4.45;2.96;;;;;;;;;;356449;149;859836;-60
2021/06/17 03:47:11;;;;;;;8.04;3.22;;;;;;;;;;355634;150;860117;-60
2021/06/17 03:48:13;;;;;;;4.51;3.09;;;;;;;;;;356087;149;859414;-59
2021/06/17 03:49:14;;;;;;;5.00;3.00;;;;;;;;;;357941;149;860386;-59
2021/06/17 03:50:18;;;;;;;3.70;2.79;;;;;;;;;;357633;149;864748;-63
2021/06/17 03:51:20;;;;;;;4.97;2.85;;;;;;;;;;353384;150;864874;-60
2021/06/17 03:52:21;;;;;;;7.69;2.84;;;;;;;;;;356102;149;865837;-59
2021/06/17 03:53:23;;;;;;;5.61;2.71;;;;;;;;;;355772;150;857173;-59
2021/06/17 03:54:26;;;;;;;4.30;2.90;;;;;;;;;;353746;150;857356;-60
2021/06/17 03:55:29;;;;;;;6.89;3.01;;;;;;;;;;355696;149;857318;-58
2021/06/17 03:56:31;;;;;;;5.12;3.03;;;;;;;;;;353567;149;865576;-59
2021/06/17 03:57:32;;;;;;;4.42;3.20;;;;;;;;;;354350;150;857357;-60
2021/06/17 03:58:34;;;;;;;5.46;3.06;;;;;;;;;;353258;150;858316;-59
2021/06/17 03:59:37;;;;;;;4.30;3.13;;;;;;;;;;353146;152;857469;-59
2021/06/17 04:00:40;;;;;;;4.87;3.18;;;;;;;;;;352877;149;864709;-58
2021/06/17 04:01:42;;;;;;;10.80;3.06;;;;;;;;;;345801;155;856527;-60
2021/06/17 04:02:44;;;;;;;6.11;3.12;;;;;;;;;;345317;152;865818;-59
2021/06/17 04:03:46;;;;;;;3.94;3.08;;;;;;;;;;353168;150;858273;-59
2021/06/17 04:04:47;;;;;;;7.20;3.21;;;;;;;;;;351248;152;857287;-59
2021/06/17 04:05:49;;;;;;;6.00;2.84;;;;;;;;;;351472;149;857605;-60
2021/06/17 04:06:52;;;;;;;6.47;3.17;;;;;;;;;;352760;149;864845;-60
2021/06/17 04:07:57;;;;;;;5.82;3.11;;;;;;;;;;352293;152;857182;-59
2021/06/17 04:08:59;;;;;;;6.43;2.90;;;;;;;;;;353981;149;864899;-60
2021/06/17 04:10:00;;;;;;;4.96;2.97;;;;;;;;;;353373;152;857332;-59
2021/06/17 04:11:02;;;;;;;7.91;2.62;;;;;;;;;;353633;149;866377;-60
2021/06/17 04:12:06;;;;;;;6.33;3.12;;;;;;;;;;353459;149;859038;-60
2021/06/17 04:13:08;;;;;;;7.21;2.87;;;;;;;;;;352082;152;865403;-60
2021/06/17 04:14:09;;;;;;;6.31;2.84;;;;;;;;;;354371;150;864770;-63
2021/06/17 04:15:11;;;;;;;10.71;3.21;;;;;;;;;;354105;149;865508;-59
2021/06/17 04:16:14;;;;;;;3.84;2.69;;;;;;;;;;354443;151;858178;-59
2021/06/17 04:17:19;;;;;;;7.05;3.23;;;;;;;;;;354320;150;864834;-58
2021/06/17 04:18:23;;;;;;;3.75;2.78;;;;;;;;;;355301;150;865474;-59
2021/06/17 04:19:26;;;;;;;4.24;2.62;;;;;;;;;;359411;149;858135;-59
2021/06/17 04:20:30;;;;;;;4.58;2.82;;;;;;;;;;351868;150;859760;-61
2021/06/17 04:21:32;;;;;;;5.26;3.05;;;;;;;;;;350963;151;859077;-61
2021/06/17 04:22:35;;;;;;;6.71;2.67;;;;;;;;;;343245;155;859115;-60
2021/06/17 04:23:37;;;;;;;8.35;2.98;;;;;;;;;;346667;152;867120;-59
2021/06/17 04:24:46;;;;;;;3.96;2.66;;;;;;;;;;348105;151;858018;-60
2021/06/17 04:25:47;;;;;;;5.24;2.97;;;;;;;;;;353946;150;857829;-60
2021/06/17 04:26:52;;;;;;;10.00;3.13;;;;;;;;;;351652;150;859111;-59
2021/06/17 04:27:56;;;;;;;8.43;3.04;;;;;;;;;;354129;150;860108;-60
2021/06/17 04:28:58;;;;;;;5.39;2.91;;;;;;;;;;346150;152;859680;-60
2021/06/17 04:29:59;;;;;;;4.25;2.89;;;;;;;;;;345597;153;857302;-60
2021/06/17 04:31:01;;;;;;;4.79;2.71;;;;;;;;;;351934;151;858493;-60
2021/06/17 04:32:04;;;;;;;7.73;3.05;;;;;;;;;;353529;151;857541;-61
2021/06/17 04:33:06;;;;;;;7.66;3.07;;;;;;;;;;351775;152;858227;-60
2021/06/17 04:34:07;;;;;;;5.81;2.91;;;;;;;;;;352153;150;857322;-58
2021/06/17 04:35:10;;;;;;;6.02;2.61;;;;;;;;;;349550;151;857397;-60
2021/06/17 04:36:13;;;;;;;8.04;3.09;;;;;;;;;;350901;151;857744;-61
2021/06/17 04:37:16;;;;;;;8.04;2.93;;;;;;;;;;350510;150;865809;-59
2021/06/17 04:38:18;;;;;;;9.56;2.98;;;;;;;;;;354126;151;857372;-59
2021/06/17 04:39:20;;;;;;;6.61;3.19;;;;;;;;;;350614;151;858559;-60
2021/06/17 04:40:24;;;;;;;3.57;2.63;;;;;;;;;;344383;155;865021;-59
2021/06/17 04:41:25;;;;;;;6.62;3.20;;;;;;;;;;345209;152;857108;-59
2021/06/17 04:42:27;;;;;;;5.73;3.08;;;;;;;;;;354004;149;859102;-59
2021/06/17 04:43:30;;;;;;;2.97;2.61;;;;;;;;;;356639;150;857304;-60
2021/06/17 04:44:32;;;;;;;6.86;2.97;;;;;;;;;;352837;150;857383;-60
2021/06/17 04:45:33;;;;;;;5.96;2.80;;;;;;;;;;353761;149;858738;-59
2021/06/17 04:46:37;;;;;;;5.99;2.89;;;;;;;;;;352742;150;857375;-59
2021/06/17 04:47:38;;;;;;;7.31;3.07;;;;;;;;;;346470;152;858144;-59
2021/06/17 04:48:40;;;;;;;5.82;2.96;;;;;;;;;;346684;152;857501;-60
2021/06/17 04:49:42;;;;;;;6.28;2.57;;;;;;;;;;353747;150;864875;-59
2021/06/17 04:50:46;;;;;;;6.53;2.89;;;;;;;;;;355808;149;857361;-59
2021/06/17 04:51:47;;;;;;;5.26;2.89;;;;;;;;;;355861;150;856450;-59
2021/06/17 04:52:51;;;;;;;7.67;3.14;;;;;;;;;;353004;149;857249;-59
2021/06/17 04:53:54;;;;;;;6.77;3.41;;;;;;;;;;359976;149;864682;-59
2021/06/17 04:54:56;;;;;;;6.44;2.81;;;;;;;;;;355063;149;859475;-59
2021/06/17 04:55:58;;;;;;;7.66;3.21;;;;;;;;;;353567;149;858925;-58
2021/06/17 04:56:59;;;;;;;8.40;2.81;;;;;;;;;;352923;149;857352;-59
2021/06/17 04:58:01;;;;;;;8.84;3.01;;;;;;;;;;350914;149;864754;-59
2021/06/17 04:59:03;;;;;;;4.79;3.09;;;;;;;;;;354493;149;859009;-59
2021/06/17 05:00:05;;;;;;;7.53;2.85;;;;;;;;;;355296;151;865549;-59
2021/06/17 05:01:07;;;;;;;5.83;2.97;;;;;;;;;;352543;149;859979;-60
2021/06/17 05:02:08;;;;;;;7.90;2.72;;;;;;;;;;353129;150;858612;-59
2021/06/17 05:03:10;;;;;;;4.49;3.02;;;;;;;;;;355412;149;857806;-59
2021/06/17 05:04:11;;;;;;;4.44;2.86;;;;;;;;;;354261;149;857226;-59
2021/06/17 05:05:14;;;;;;;7.49;2.86;;;;;;;;;;353609;151;865011;-60
2021/06/17 05:06:18;;;;;;;6.30;2.96;;;;;;;;;;354978;149;856382;-59
2021/06/17 05:10:48;;;;;;;6.38;3.32;;;;;;;;;;350347;150;858085;-61
2021/06/17 05:11:53;;;;;;;6.70;2.96;;;;;;;;;;353579;149;857844;-58
2021/06/17 05:12:54;;;;;;;6.76;2.94;;;;;;;;;;353039;151;857295;-60
2021/06/17 05:13:56;;;;;;;4.42;2.96;;;;;;;;;;354019;149;859490;-59
2021/06/17 05:14:57;;;;;;;8.01;2.99;;;;;;;;;;355039;149;857268;-59
2021/06/17 05:16:00;;;;;;;4.96;2.91;;;;;;;;;;348682;154;857426;-59
2021/06/17 05:17:01;;;;;;;8.30;3.21;;;;;;;;;;350316;152;857399;-58
2021/06/17 05:18:03;;;;;;;6.73;2.99;;;;;;;;;;352269;151;857379;-59
2021/06/17 05:19:04;;;;;;;8.06;3.15;;;;;;;;;;354691;151;857197;-58
2021/06/17 05:20:08;;;;;;;4.95;2.84;;;;;;;;;;355078;150;858493;-60
2021/06/17 05:21:09;;;;;;;8.64;3.25;;;;;;;;;;355344;151;857489;-59
2021/06/17 05:22:11;;;;;;;4.14;2.49;;;;;;;;;;350801;149;858627;-59
2021/06/17 05:23:14;;;;;;;8.14;2.87;;;;;;;;;;353345;149;864804;-60
2021/06/17 05:24:15;;;;;;;9.44;2.72;;;;;;;;;;350153;149;857270;-59
2021/06/17 05:25:17;;;;;;;6.62;3.17;;;;;;;;;;353578;149;860308;-59
2021/06/17 05:26:20;;;;;;;6.48;2.75;;;;;;;;;;353978;150;857756;-58
2021/06/17 05:27:21;;;;;;;4.92;2.93;;;;;;;;;;354313;150;857165;-58
2021/06/17 05:28:24;;;;;;;5.42;2.83;;;;;;;;;;355385;149;857366;-58
2021/06/17 05:29:26;;;;;;;8.42;2.83;;;;;;;;;;354242;151;859513;-58
2021/06/17 05:30:30;;;;;;;4.89;3.17;;;;;;;;;;352217;149;857426;-58
2021/06/17 05:31:31;;;;;;;4.16;2.76;;;;;;;;;;351057;150;860512;-59
2021/06/17 05:32:33;;;;;;;5.71;2.96;;;;;;;;;;349077;152;857313;-59
2021/06/17 05:33:34;;;;;;;5.18;2.96;;;;;;;;;;348473;151;864888;-59
2021/06/17 05:34:36;;;;;;;7.46;2.91;;;;;;;;;;350325;150;857361;-59
2021/06/17 05:35:37;;;;;;;6.01;2.95;;;;;;;;;;347074;152;857488;-59
2021/06/17 05:36:41;;;;;;;6.19;2.68;;;;;;;;;;349368;151;857318;-58
2021/06/17 05:37:42;;;;;;;5.66;2.71;;;;;;;;;;349931;152;858525;-58
2021/06/17 05:38:44;;;;;;;5.67;3.06;;;;;;;;;;350469;151;857292;-58
2021/06/17 05:39:45;;;;;;;3.91;2.72;;;;;;;;;;350340;151;857382;-58
2021/06/17 05:40:48;;;;;;;3.10;2.88;;;;;;;;;;353523;150;858198;-58
2021/06/17 05:41:50;;;;;;;5.98;2.94;;;;;;;;;;353359;150;866629;-58
2021/06/17 05:42:51;;;;;;;7.42;3.28;;;;;;;;;;349677;151;865786;-58
2021/06/17 05:43:53;;;;;;;8.49;2.61;;;;;;;;;;348935;152;858576;-58
2021/06/17 05:44:54;;;;;;;5.27;2.85;;;;;;;;;;349296;150;858375;-58
2021/06/17 05:45:56;;;;;;;3.99;2.79;;;;;;;;;;352368;151;864762;-58
2021/06/17 05:46:58;;;;;;;3.86;2.86;;;;;;;;;;351811;151;857276;-58
2021/06/17 05:48:00;;;;;;;8.83;3.02;;;;;;;;;;350193;151;864887;-58
2021/06/17 05:49:01;;;;;;;4.39;3.09;;;;;;;;;;343884;156;857315;-59
2021/06/17 05:50:04;;;;;;;4.72;2.66;;;;;;;;;;351489;150;857296;-58
2021/06/17 05:51:06;;;;;;;7.85;2.71;;;;;;;;;;351003;150;864869;-58
2021/06/17 05:52:07;;;;;;;4.94;2.81;;;;;;;;;;350303;152;858936;-60
2021/06/17 05:53:09;;;;;;;7.62;3.14;;;;;;;;;;346387;151;857300;-58
2021/06/17 05:54:10;;;;;;;6.54;3.16;;;;;;;;;;351329;152;865147;-57
2021/06/17 05:55:13;;;;;;;5.15;2.99;;;;;;;;;;353888;150;858320;-58
2021/06/17 05:56:15;;;;;;;6.29;2.69;;;;;;;;;;350366;151;864743;-57
2021/06/17 05:57:16;;;;;;;6.79;2.93;;;;;;;;;;351971;151;857349;-57
2021/06/17 05:58:18;;;;;;;5.32;2.84;;;;;;;;;;349322;151;859137;-57
2021/06/17 05:59:20;;;;;;;6.79;2.81;;;;;;;;;;349478;152;859415;-57
2021/06/17 06:00:22;;;;;;;5.51;3.03;;;;;;;;;;345041;154;859089;-57
2021/06/17 06:01:23;;;;;;;7.23;2.56;;;;;;;;;;350075;153;866740;-58
2021/06/17 06:02:25;;;;;;;11.65;3.51;;;;;;;;;;348219;154;857302;-57
2021/06/17 06:03:27;;;;;;;3.34;3.04;;;;;;;;;;350452;152;857367;-57
2021/06/17 06:04:28;;;;;;;5.15;2.94;;;;;;;;;;349483;153;857428;-57
2021/06/17 06:05:30;;;;;;;5.64;3.52;;;;;;;;;;350072;151;866557;-57
2021/06/17 06:06:32;;;;;;;5.43;3.25;;;;;;;;;;350424;153;857381;-57
2021/06/17 06:07:34;;;;;;;4.73;2.91;;;;;;;;;;349622;152;858739;-59
2021/06/17 06:08:35;;;;;;;5.73;3.01;;;;;;;;;;350384;150;864999;-59
2021/06/17 06:09:37;;;;;;;7.02;2.80;;;;;;;;;;349572;150;857350;-58
2021/06/17 06:10:39;;;;;;;9.77;2.86;;;;;;;;;;349212;151;859270;-59
2021/06/17 06:11:41;;;;;;;5.05;2.73;;;;;;;;;;349906;151;859826;-58
2021/06/17 06:12:42;;;;;;;4.77;2.78;;;;;;;;;;348936;152;858364;-57